Mount Moriah, Missouri
Current Conditions -  °F | °C
As of 5:53 PM on Saturday 25 Oct 2014 (Local Time) from KLWD Reporting Station
Clear Clear  
Wind Chill: 68°   Ceiling: Unl
Heat Index: 68°   Visibility: 10mi
Dew Point: 47°   Wind: 6mph
Humidity: 47%   Direction: 40°NE
Pressure: 30.05"   Gusts: NA
Location:  40.33°N, 93.8°W
Report Text: KLWD 252253Z AUTO 04005KT 10SM CLR 20/08 A3005 RMK AO2 SLP173 T02000083
Loading
Personal Weather Stations






























Interactive Weather Map New forecast layout! Learn more

10-Day Weather Forecast

Advertisements
Track Severe Weather on mobile